sensor_id;sensor_type;location;lat;lon;timestamp;pressure;altitude;pressure_sealevel;temperature;humidity
8101;BME280;4093;53.470;9.832;2022-12-19T00:00:13;102143.03;;;0.84;70.44
8101;BME280;4093;53.470;9.832;2022-12-19T00:02:41;102153.91;;;1.19;69.91
8101;BME280;4093;53.470;9.832;2022-12-19T00:05:10;102146.16;;;1.56;68.64
8101;BME280;4093;53.470;9.832;2022-12-19T00:07:38;102124.28;;;1.01;69.80
8101;BME280;4093;53.470;9.832;2022-12-19T00:10:06;102124.81;;;1.13;69.66
8101;BME280;4093;53.470;9.832;2022-12-19T00:12:34;102103.09;;;0.83;70.09
8101;BME280;4093;53.470;9.832;2022-12-19T00:15:03;102111.41;;;0.79;70.71
8101;BME280;4093;53.470;9.832;2022-12-19T00:17:31;102108.66;;;0.93;70.14
8101;BME280;4093;53.470;9.832;2022-12-19T00:20:02;102113.56;;;1.08;70.58
8101;BME280;4093;53.470;9.832;2022-12-19T00:22:29;102114.63;;;1.33;69.36
8101;BME280;4093;53.470;9.832;2022-12-19T00:24:57;102087.97;;;1.05;69.62
8101;BME280;4093;53.470;9.832;2022-12-19T00:27:24;102088.81;;;1.06;69.59
8101;BME280;4093;53.470;9.832;2022-12-19T00:29:52;102082.88;;;0.66;71.45
8101;BME280;4093;53.470;9.832;2022-12-19T00:32:21;102096.69;;;1.31;69.43
8101;BME280;4093;53.470;9.832;2022-12-19T00:34:48;102064.66;;;0.57;71.46
8101;BME280;4093;53.470;9.832;2022-12-19T00:37:16;102093.84;;;1.24;70.28
8101;BME280;4093;53.470;9.832;2022-12-19T00:39:43;102069.56;;;0.91;70.75
8101;BME280;4093;53.470;9.832;2022-12-19T00:42:11;102079.44;;;1.05;70.43
8101;BME280;4093;53.470;9.832;2022-12-19T00:44:38;102055.19;;;0.55;72.12
8101;BME280;4093;53.470;9.832;2022-12-19T00:47:06;102092.38;;;0.90;72.05
8101;BME280;4093;53.470;9.832;2022-12-19T00:49:35;102091.63;;;1.12;70.80
8101;BME280;4093;53.470;9.832;2022-12-19T00:52:03;102096.31;;;1.22;70.41
8101;BME280;4093;53.470;9.832;2022-12-19T00:54:31;102096.59;;;1.09;71.11
8101;BME280;4093;53.470;9.832;2022-12-19T00:56:59;102086.84;;;1.39;70.40
8101;BME280;4093;53.470;9.832;2022-12-19T00:59:26;102086.19;;;1.24;71.12
8101;BME280;4093;53.470;9.832;2022-12-19T01:01:54;102077.09;;;1.29;70.80
8101;BME280;4093;53.470;9.832;2022-12-19T01:04:22;102076.81;;;1.23;70.77
8101;BME280;4093;53.470;9.832;2022-12-19T01:06:56;102073.38;;;1.62;69.90
8101;BME280;4093;53.470;9.832;2022-12-19T01:09:28;102049.31;;;1.35;70.57
8101;BME280;4093;53.470;9.832;2022-12-19T01:11:56;102049.22;;;1.12;71.76
8101;BME280;4093;53.470;9.832;2022-12-19T01:14:41;102059.25;;;1.50;70.63
8101;BME280;4093;53.470;9.832;2022-12-19T01:17:08;102052.66;;;1.34;70.12
8101;BME280;4093;53.470;9.832;2022-12-19T01:19:36;102076.59;;;1.58;70.73
8101;BME280;4093;53.470;9.832;2022-12-19T01:22:10;102055.72;;;1.46;70.45
8101;BME280;4093;53.470;9.832;2022-12-19T01:24:38;102050.63;;;1.46;70.08
8101;BME280;4093;53.470;9.832;2022-12-19T01:27:06;102050.63;;;1.46;70.62
8101;BME280;4093;53.470;9.832;2022-12-19T01:29:33;102039.00;;;1.53;70.97
8101;BME280;4093;53.470;9.832;2022-12-19T01:32:18;102022.81;;;1.10;71.77
8101;BME280;4093;53.470;9.832;2022-12-19T01:34:45;102032.53;;;1.00;72.94
8101;BME280;4093;53.470;9.832;2022-12-19T01:37:14;102044.41;;;1.39;72.12
8101;BME280;4093;53.470;9.832;2022-12-19T01:39:45;102035.28;;;1.45;71.36
8101;BME280;4093;53.470;9.832;2022-12-19T01:42:13;102033.59;;;1.66;71.32
8101;BME280;4093;53.470;9.832;2022-12-19T01:47:29;102018.78;;;1.15;72.81
8101;BME280;4093;53.470;9.832;2022-12-19T01:49:57;102030.34;;;1.28;72.65
8101;BME280;4093;53.470;9.832;2022-12-19T01:52:27;102014.19;;;1.07;72.64
8101;BME280;4093;53.470;9.832;2022-12-19T01:54:54;102017.38;;;1.43;72.54
8101;BME280;4093;53.470;9.832;2022-12-19T01:57:24;102003.81;;;1.23;72.58
8101;BME280;4093;53.470;9.832;2022-12-19T01:59:52;102000.91;;;1.14;73.13
8101;BME280;4093;53.470;9.832;2022-12-19T02:02:22;101993.88;;;1.08;73.96
8101;BME280;4093;53.470;9.832;2022-12-19T02:04:50;101995.66;;;0.90;75.04
8101;BME280;4093;53.470;9.832;2022-12-19T02:07:18;102006.25;;;1.41;74.83
8101;BME280;4093;53.470;9.832;2022-12-19T02:09:50;101991.50;;;1.34;75.77
8101;BME280;4093;53.470;9.832;2022-12-19T02:12:23;101980.69;;;1.19;76.99
8101;BME280;4093;53.470;9.832;2022-12-19T02:14:54;101985.84;;;0.99;77.49
8101;BME280;4093;53.470;9.832;2022-12-19T02:17:31;101984.34;;;0.83;79.88
8101;BME280;4093;53.470;9.832;2022-12-19T02:20:15;101994.38;;;1.21;79.11
8101;BME280;4093;53.470;9.832;2022-12-19T02:22:54;102001.69;;;1.76;78.50
8101;BME280;4093;53.470;9.832;2022-12-19T02:28:23;101969.75;;;0.79;81.60
8101;BME280;4093;53.470;9.832;2022-12-19T02:31:01;101984.28;;;1.66;79.88
8101;BME280;4093;53.470;9.832;2022-12-19T02:33:43;101979.25;;;1.25;81.07
8101;BME280;4093;53.470;9.832;2022-12-19T02:36:14;101963.78;;;1.00;82.23
8101;BME280;4093;53.470;9.832;2022-12-19T02:38:46;101980.72;;;0.98;83.81
8101;BME280;4093;53.470;9.832;2022-12-19T02:41:17;101962.72;;;0.74;84.38
8101;BME280;4093;53.470;9.832;2022-12-19T02:43:47;101989.06;;;1.79;81.20
8101;BME280;4093;53.470;9.832;2022-12-19T02:46:25;101978.97;;;1.38;83.33
8101;BME280;4093;53.470;9.832;2022-12-19T02:48:54;101983.81;;;1.11;84.05
8101;BME280;4093;53.470;9.832;2022-12-19T02:51:23;101981.28;;;1.32;83.87
8101;BME280;4093;53.470;9.832;2022-12-19T02:53:50;101999.91;;;1.52;84.25
8101;BME280;4093;53.470;9.832;2022-12-19T02:56:24;101984.00;;;1.16;85.17
8101;BME280;4093;53.470;9.832;2022-12-19T02:58:59;101986.63;;;1.38;84.69
8101;BME280;4093;53.470;9.832;2022-12-19T03:01:33;101971.25;;;1.37;85.32
8101;BME280;4093;53.470;9.832;2022-12-19T03:04:09;101958.00;;;1.67;83.14
8101;BME280;4093;53.470;9.832;2022-12-19T03:06:39;101967.91;;;0.96;87.23
8101;BME280;4093;53.470;9.832;2022-12-19T03:09:12;101952.06;;;1.03;87.15
8101;BME280;4093;53.470;9.832;2022-12-19T03:11:42;101952.88;;;1.02;87.87
8101;BME280;4093;53.470;9.832;2022-12-19T03:14:13;101943.88;;;0.89;88.73
8101;BME280;4093;53.470;9.832;2022-12-19T03:16:44;101960.06;;;1.54;87.15
8101;BME280;4093;53.470;9.832;2022-12-19T03:19:12;101956.22;;;1.66;87.41
8101;BME280;4093;53.470;9.832;2022-12-19T03:21:40;101945.28;;;1.46;87.58
8101;BME280;4093;53.470;9.832;2022-12-19T03:24:10;101939.94;;;1.19;89.06
8101;BME280;4093;53.470;9.832;2022-12-19T03:26:40;101942.56;;;1.20;89.84
8101;BME280;4093;53.470;9.832;2022-12-19T03:29:11;101949.91;;;1.56;89.27
8101;BME280;4093;53.470;9.832;2022-12-19T03:31:41;101951.72;;;1.58;89.48
8101;BME280;4093;53.470;9.832;2022-12-19T03:34:12;101936.66;;;1.42;89.56
8101;BME280;4093;53.470;9.832;2022-12-19T03:36:43;101941.88;;;1.45;89.38
8101;BME280;4093;53.470;9.832;2022-12-19T03:39:11;101937.88;;;1.31;89.34
8101;BME280;4093;53.470;9.832;2022-12-19T03:41:39;101951.84;;;1.84;88.92
8101;BME280;4093;53.470;9.832;2022-12-19T03:44:27;101942.56;;;1.41;90.04
8101;BME280;4093;53.470;9.832;2022-12-19T03:46:57;101945.84;;;1.82;88.87
8101;BME280;4093;53.470;9.832;2022-12-19T03:49:28;101925.06;;;1.50;89.48
8101;BME280;4093;53.470;9.832;2022-12-19T03:52:02;101930.47;;;1.80;89.24
8101;BME280;4093;53.470;9.832;2022-12-19T03:54:33;101920.22;;;1.79;88.91
8101;BME280;4093;53.470;9.832;2022-12-19T03:57:04;101910.47;;;2.15;87.66
8101;BME280;4093;53.470;9.832;2022-12-19T03:59:33;101901.66;;;1.83;88.61
8101;BME280;4093;53.470;9.832;2022-12-19T04:02:02;101900.63;;;1.55;90.20
8101;BME280;4093;53.470;9.832;2022-12-19T04:04:32;101910.31;;;1.42;91.21
8101;BME280;4093;53.470;9.832;2022-12-19T04:07:02;101916.66;;;1.75;90.94
8101;BME280;4093;53.470;9.832;2022-12-19T04:09:30;101904.03;;;1.78;90.05
8101;BME280;4093;53.470;9.832;2022-12-19T04:12:00;101898.38;;;1.85;90.05
8101;BME280;4093;53.470;9.832;2022-12-19T04:14:29;101905.69;;;2.23;88.94
8101;BME280;4093;53.470;9.832;2022-12-19T04:17:00;101875.44;;;1.85;89.78
8101;BME280;4093;53.470;9.832;2022-12-19T04:19:35;101864.47;;;1.88;90.97
8101;BME280;4093;53.470;9.832;2022-12-19T04:22:09;101865.38;;;1.90;90.38
8101;BME280;4093;53.470;9.832;2022-12-19T04:24:39;101884.97;;;2.39;89.18
8101;BME280;4093;53.470;9.832;2022-12-19T04:27:07;101878.34;;;1.96;90.46
8101;BME280;4093;53.470;9.832;2022-12-19T04:29:37;101881.41;;;2.10;90.59
8101;BME280;4093;53.470;9.832;2022-12-19T04:32:05;101861.22;;;1.92;91.95
8101;BME280;4093;53.470;9.832;2022-12-19T04:34:35;101865.50;;;1.93;91.45
8101;BME280;4093;53.470;9.832;2022-12-19T04:37:08;101867.78;;;1.85;92.55
8101;BME280;4093;53.470;9.832;2022-12-19T04:39:36;101866.13;;;1.88;93.82
8101;BME280;4093;53.470;9.832;2022-12-19T04:42:04;101844.47;;;2.00;91.88
8101;BME280;4093;53.470;9.832;2022-12-19T04:44:32;101846.06;;;2.21;90.96
8101;BME280;4093;53.470;9.832;2022-12-19T04:46:59;101835.59;;;1.89;91.80
8101;BME280;4093;53.470;9.832;2022-12-19T04:49:27;101854.25;;;2.36;91.60
8101;BME280;4093;53.470;9.832;2022-12-19T04:51:56;101811.63;;;1.84;91.73
8101;BME280;4093;53.470;9.832;2022-12-19T04:54:24;101830.47;;;2.37;92.29
8101;BME280;4093;53.470;9.832;2022-12-19T04:56:51;101815.03;;;2.08;91.75
8101;BME280;4093;53.470;9.832;2022-12-19T04:59:19;101812.91;;;2.21;91.99
8101;BME280;4093;53.470;9.832;2022-12-19T05:01:47;101816.50;;;2.26;92.20
8101;BME280;4093;53.470;9.832;2022-12-19T05:04:14;101817.59;;;2.34;92.99
8101;BME280;4093;53.470;9.832;2022-12-19T05:06:42;101811.19;;;2.45;93.43
8101;BME280;4093;53.470;9.832;2022-12-19T05:09:11;101802.66;;;2.72;93.13
8101;BME280;4093;53.470;9.832;2022-12-19T05:11:39;101792.06;;;2.87;92.24
8101;BME280;4093;53.470;9.832;2022-12-19T05:14:06;101772.22;;;2.51;94.50
8101;BME280;4093;53.470;9.832;2022-12-19T05:16:34;101786.25;;;2.64;95.27
8101;BME280;4093;53.470;9.832;2022-12-19T05:19:01;101776.44;;;2.76;95.50
8101;BME280;4093;53.470;9.832;2022-12-19T05:21:29;101766.22;;;2.76;95.21
8101;BME280;4093;53.470;9.832;2022-12-19T05:23:58;101759.41;;;2.76;93.83
8101;BME280;4093;53.470;9.832;2022-12-19T05:26:27;101753.72;;;2.85;93.95
8101;BME280;4093;53.470;9.832;2022-12-19T05:28:55;101749.31;;;3.08;92.55
8101;BME280;4093;53.470;9.832;2022-12-19T05:31:23;101750.75;;;3.00;92.73
8101;BME280;4093;53.470;9.832;2022-12-19T05:33:51;101705.50;;;2.96;91.48
8101;BME280;4093;53.470;9.832;2022-12-19T05:36:19;101736.19;;;2.97;93.08
8101;BME280;4093;53.470;9.832;2022-12-19T05:38:46;101723.78;;;2.81;94.14
8101;BME280;4093;53.470;9.832;2022-12-19T05:41:16;101723.09;;;2.85;94.26
8101;BME280;4093;53.470;9.832;2022-12-19T05:43:50;101743.41;;;3.11;93.59
8101;BME280;4093;53.470;9.832;2022-12-19T05:46:19;101727.56;;;2.94;95.75
8101;BME280;4093;53.470;9.832;2022-12-19T05:48:48;101726.78;;;3.25;94.22
8101;BME280;4093;53.470;9.832;2022-12-19T05:51:16;101728.94;;;3.11;94.98
8101;BME280;4093;53.470;9.832;2022-12-19T05:53:44;101737.50;;;3.74;93.57
8101;BME280;4093;53.470;9.832;2022-12-19T05:56:12;101742.13;;;3.88;92.30
8101;BME280;4093;53.470;9.832;2022-12-19T05:58:40;101734.25;;;3.79;91.85
8101;BME280;4093;53.470;9.832;2022-12-19T06:01:10;101730.78;;;3.77;92.22
8101;BME280;4093;53.470;9.832;2022-12-19T06:03:38;101737.41;;;3.70;94.10
8101;BME280;4093;53.470;9.832;2022-12-19T06:06:07;101717.09;;;4.10;91.63
8101;BME280;4093;53.470;9.832;2022-12-19T06:08:35;101705.47;;;3.55;95.68
8101;BME280;4093;53.470;9.832;2022-12-19T06:11:03;101701.72;;;3.75;95.38
8101;BME280;4093;53.470;9.832;2022-12-19T06:13:32;101695.28;;;3.89;93.75
8101;BME280;4093;53.470;9.832;2022-12-19T06:15:59;101703.94;;;3.61;95.08
8101;BME280;4093;53.470;9.832;2022-12-19T06:18:29;101675.84;;;3.31;94.65
8101;BME280;4093;53.470;9.832;2022-12-19T06:20:57;101707.88;;;4.16;93.24
8101;BME280;4093;53.470;9.832;2022-12-19T06:23:25;101711.34;;;3.85;92.31
8101;BME280;4093;53.470;9.832;2022-12-19T06:25:54;101715.06;;;3.97;91.21
8101;BME280;4093;53.470;9.832;2022-12-19T06:28:22;101714.31;;;4.01;92.82
8101;BME280;4093;53.470;9.832;2022-12-19T06:30:50;101703.28;;;4.02;92.55
8101;BME280;4093;53.470;9.832;2022-12-19T06:33:18;101693.59;;;3.91;93.43
8101;BME280;4093;53.470;9.832;2022-12-19T06:35:47;101705.97;;;4.08;92.54
8101;BME280;4093;53.470;9.832;2022-12-19T06:38:15;101696.66;;;3.77;93.43
8101;BME280;4093;53.470;9.832;2022-12-19T06:40:43;101700.50;;;3.94;92.77
8101;BME280;4093;53.470;9.832;2022-12-19T06:43:29;101687.94;;;4.03;92.43
8101;BME280;4093;53.470;9.832;2022-12-19T06:45:56;101696.03;;;4.20;92.00
8101;BME280;4093;53.470;9.832;2022-12-19T06:48:26;101682.91;;;4.06;91.55
8101;BME280;4093;53.470;9.832;2022-12-19T06:50:55;101674.22;;;4.00;92.11
8101;BME280;4093;53.470;9.832;2022-12-19T06:53:23;101630.09;;;3.74;92.23
8101;BME280;4093;53.470;9.832;2022-12-19T06:55:52;101676.31;;;4.16;92.19
8101;BME280;4093;53.470;9.832;2022-12-19T06:58:21;101673.88;;;4.21;91.25
8101;BME280;4093;53.470;9.832;2022-12-19T07:00:50;101677.78;;;4.06;93.26
8101;BME280;4093;53.470;9.832;2022-12-19T07:03:21;101689.63;;;4.37;92.70
8101;BME280;4093;53.470;9.832;2022-12-19T07:05:51;101629.72;;;3.94;94.47
8101;BME280;4093;53.470;9.832;2022-12-19T07:08:20;101669.28;;;4.44;93.58
8101;BME280;4093;53.470;9.832;2022-12-19T07:10:48;101657.84;;;4.29;94.23
8101;BME280;4093;53.470;9.832;2022-12-19T07:13:16;101662.41;;;4.80;93.69
8101;BME280;4093;53.470;9.832;2022-12-19T07:15:44;101654.28;;;4.60;93.46
8101;BME280;4093;53.470;9.832;2022-12-19T07:18:12;101656.75;;;4.57;93.11
8101;BME280;4093;53.470;9.832;2022-12-19T07:20:40;101659.09;;;4.47;94.83
8101;BME280;4093;53.470;9.832;2022-12-19T07:23:13;101649.22;;;4.26;96.33
8101;BME280;4093;53.470;9.832;2022-12-19T07:25:44;101642.38;;;4.23;96.57
8101;BME280;4093;53.470;9.832;2022-12-19T07:28:12;101645.66;;;4.19;97.38
8101;BME280;4093;53.470;9.832;2022-12-19T07:30:41;101650.41;;;4.40;96.80
8101;BME280;4093;53.470;9.832;2022-12-19T07:33:09;101648.50;;;4.31;98.10
8101;BME280;4093;53.470;9.832;2022-12-19T07:35:41;101655.75;;;4.49;96.80
8101;BME280;4093;53.470;9.832;2022-12-19T07:38:08;101655.09;;;4.58;96.05
8101;BME280;4093;53.470;9.832;2022-12-19T07:40:36;101656.53;;;4.47;96.74
8101;BME280;4093;53.470;9.832;2022-12-19T07:43:05;101654.53;;;4.73;95.93
8101;BME280;4093;53.470;9.832;2022-12-19T07:45:35;101652.34;;;4.49;95.68
8101;BME280;4093;53.470;9.832;2022-12-19T07:48:05;101624.53;;;4.28;97.34
8101;BME280;4093;53.470;9.832;2022-12-19T07:50:33;101658.34;;;4.90;95.48
8101;BME280;4093;53.470;9.832;2022-12-19T07:53:01;101642.75;;;4.41;96.36
8101;BME280;4093;53.470;9.832;2022-12-19T07:55:29;101650.25;;;4.70;96.36
8101;BME280;4093;53.470;9.832;2022-12-19T07:57:58;101650.97;;;5.07;95.71
8101;BME280;4093;53.470;9.832;2022-12-19T08:00:27;101636.41;;;4.63;96.72
8101;BME280;4093;53.470;9.832;2022-12-19T08:02:57;101646.38;;;4.91;96.95
8101;BME280;4093;53.470;9.832;2022-12-19T08:05:25;101636.31;;;4.59;97.36
8101;BME280;4093;53.470;9.832;2022-12-19T08:07:53;101645.66;;;4.57;98.75
8101;BME280;4093;53.470;9.832;2022-12-19T08:10:21;101645.78;;;4.61;98.90
8101;BME280;4093;53.470;9.832;2022-12-19T08:12:49;101645.72;;;5.01;97.78
8101;BME280;4093;53.470;9.832;2022-12-19T08:15:16;101641.44;;;4.59;98.60
8101;BME280;4093;53.470;9.832;2022-12-19T08:17:46;101644.84;;;4.99;97.39
8101;BME280;4093;53.470;9.832;2022-12-19T08:20:13;101628.25;;;4.40;99.29
8101;BME280;4093;53.470;9.832;2022-12-19T08:22:41;101620.28;;;4.28;100.00
8101;BME280;4093;53.470;9.832;2022-12-19T08:25:09;101631.09;;;4.54;100.00
8101;BME280;4093;53.470;9.832;2022-12-19T08:27:37;101623.66;;;4.65;99.03
8101;BME280;4093;53.470;9.832;2022-12-19T08:30:06;101623.31;;;4.91;99.23
8101;BME280;4093;53.470;9.832;2022-12-19T08:32:34;101614.19;;;4.61;99.09
8101;BME280;4093;53.470;9.832;2022-12-19T08:35:04;101612.22;;;4.92;98.82
8101;BME280;4093;53.470;9.832;2022-12-19T08:37:33;101610.25;;;4.78;99.40
8101;BME280;4093;53.470;9.832;2022-12-19T08:40:02;101611.03;;;4.74;99.41
8101;BME280;4093;53.470;9.832;2022-12-19T08:42:29;101609.53;;;4.84;99.38
8101;BME280;4093;53.470;9.832;2022-12-19T08:44:57;101604.13;;;4.70;99.60
8101;BME280;4093;53.470;9.832;2022-12-19T08:47:25;101567.97;;;4.55;100.00
8101;BME280;4093;53.470;9.832;2022-12-19T08:49:53;101609.91;;;5.04;99.10
8101;BME280;4093;53.470;9.832;2022-12-19T08:52:23;101598.09;;;4.68;99.98
8101;BME280;4093;53.470;9.832;2022-12-19T08:54:51;101595.13;;;4.91;99.54
8101;BME280;4093;53.470;9.832;2022-12-19T08:57:19;101595.75;;;4.79;100.00
8101;BME280;4093;53.470;9.832;2022-12-19T08:59:46;101610.03;;;5.10;99.27
8101;BME280;4093;53.470;9.832;2022-12-19T09:02:15;101580.66;;;4.50;100.00
8101;BME280;4093;53.470;9.832;2022-12-19T09:04:43;101599.22;;;4.82;100.00
8101;BME280;4093;53.470;9.832;2022-12-19T09:07:32;101598.97;;;5.13;99.05
8101;BME280;4093;53.470;9.832;2022-12-19T09:10:05;101594.59;;;5.07;99.23
8101;BME280;4093;53.470;9.832;2022-12-19T09:12:33;101596.84;;;4.92;100.00
8101;BME280;4093;53.470;9.832;2022-12-19T09:15:00;101593.50;;;4.94;100.00
8101;BME280;4093;53.470;9.832;2022-12-19T09:17:28;101593.06;;;4.73;100.00
8101;BME280;4093;53.470;9.832;2022-12-19T09:19:56;101586.53;;;4.87;100.00
8101;BME280;4093;53.470;9.832;2022-12-19T09:22:24;101583.78;;;4.79;100.00
8101;BME280;4093;53.470;9.832;2022-12-19T09:24:56;101576.00;;;5.17;100.00
8101;BME280;4093;53.470;9.832;2022-12-19T09:27:24;101572.66;;;5.23;99.69
8101;BME280;4093;53.470;9.832;2022-12-19T09:29:51;101577.06;;;4.83;100.00
8101;BME280;4093;53.470;9.832;2022-12-19T09:32:19;101570.84;;;5.16;100.00
8101;BME280;4093;53.470;9.832;2022-12-19T09:34:47;101571.19;;;5.36;100.00
8101;BME280;4093;53.470;9.832;2022-12-19T09:37:15;101562.06;;;5.04;100.00
8101;BME280;4093;53.470;9.832;2022-12-19T09:39:44;101557.00;;;5.06;100.00
8101;BME280;4093;53.470;9.832;2022-12-19T09:42:35;101496.31;;;4.58;100.00
8101;BME280;4093;53.470;9.832;2022-12-19T09:45:22;101569.13;;;5.16;100.00
8101;BME280;4093;53.470;9.832;2022-12-19T09:47:59;101557.91;;;5.09;100.00
8101;BME280;4093;53.470;9.832;2022-12-19T09:50:38;101555.50;;;5.19;100.00
8101;BME280;4093;53.470;9.832;2022-12-19T09:53:15;101552.59;;;4.99;100.00
8101;BME280;4093;53.470;9.832;2022-12-19T09:55:45;101546.13;;;5.19;100.00
8101;BME280;4093;53.470;9.832;2022-12-19T09:58:25;101497.06;;;4.99;100.00
8101;BME280;4093;53.470;9.832;2022-12-19T10:00:59;101534.41;;;5.35;100.00
8101;BME280;4093;53.470;9.832;2022-12-19T10:03:31;101537.06;;;5.40;100.00
8101;BME280;4093;53.470;9.832;2022-12-19T10:06:12;101528.59;;;5.44;100.00
8101;BME280;4093;53.470;9.832;2022-12-19T10:09:03;101529.06;;;5.21;100.00
8101;BME280;4093;53.470;9.832;2022-12-19T10:12:04;101530.34;;;4.98;100.00
8101;BME280;4093;53.470;9.832;2022-12-19T10:15:04;101524.66;;;5.64;100.00
8101;BME280;4093;53.470;9.832;2022-12-19T10:17:43;101534.72;;;5.53;100.00
8101;BME280;4093;53.470;9.832;2022-12-19T10:20:20;101521.31;;;5.71;100.00
8101;BME280;4093;53.470;9.832;2022-12-19T10:23:01;101511.16;;;5.77;100.00
8101;BME280;4093;53.470;9.832;2022-12-19T10:25:38;101518.81;;;5.76;100.00
8101;BME280;4093;53.470;9.832;2022-12-19T10:28:19;101482.72;;;5.10;100.00
8101;BME280;4093;53.470;9.832;2022-12-19T10:31:09;101496.66;;;5.23;100.00
8101;BME280;4093;53.470;9.832;2022-12-19T10:33:52;101499.91;;;5.69;100.00
8101;BME280;4093;53.470;9.832;2022-12-19T10:36:22;101504.22;;;5.72;100.00
8101;BME280;4093;53.470;9.832;2022-12-19T10:39:15;101489.50;;;5.60;100.00
8101;BME280;4093;53.470;9.832;2022-12-19T10:41:48;101459.19;;;5.33;100.00
8101;BME280;4093;53.470;9.832;2022-12-19T10:44:20;101492.78;;;5.51;100.00
8101;BME280;4093;53.470;9.832;2022-12-19T10:46:51;101497.38;;;5.72;100.00
8101;BME280;4093;53.470;9.832;2022-12-19T10:49:21;101421.41;;;5.21;100.00
8101;BME280;4093;53.470;9.832;2022-12-19T10:51:55;101481.31;;;5.86;100.00
8101;BME280;4093;53.470;9.832;2022-12-19T10:54:25;101470.97;;;5.78;100.00
8101;BME280;4093;53.470;9.832;2022-12-19T10:57:16;101468.50;;;5.86;100.00
8101;BME280;4093;53.470;9.832;2022-12-19T10:59:53;101472.16;;;6.01;100.00
8101;BME280;4093;53.470;9.832;2022-12-19T11:02:33;101472.00;;;5.91;100.00
8101;BME280;4093;53.470;9.832;2022-12-19T11:05:05;101459.81;;;5.74;100.00
8101;BME280;4093;53.470;9.832;2022-12-19T11:07:58;101418.03;;;5.85;100.00
8101;BME280;4093;53.470;9.832;2022-12-19T11:10:37;101448.28;;;6.06;100.00
8101;BME280;4093;53.470;9.832;2022-12-19T11:13:27;101455.13;;;6.07;100.00
8101;BME280;4093;53.470;9.832;2022-12-19T11:16:21;101456.16;;;6.21;100.00
8101;BME280;4093;53.470;9.832;2022-12-19T11:19:21;101454.00;;;5.88;100.00
8101;BME280;4093;53.470;9.832;2022-12-19T11:22:15;101397.56;;;5.89;100.00
8101;BME280;4093;53.470;9.832;2022-12-19T11:25:14;101442.16;;;5.96;100.00
8101;BME280;4093;53.470;9.832;2022-12-19T11:28:03;101433.72;;;6.08;100.00
8101;BME280;4093;53.470;9.832;2022-12-19T11:30:57;101439.44;;;6.55;100.00
8101;BME280;4093;53.470;9.832;2022-12-19T11:33:53;101443.69;;;6.53;100.00
8101;BME280;4093;53.470;9.832;2022-12-19T11:36:30;101429.34;;;6.80;100.00
8101;BME280;4093;53.470;9.832;2022-12-19T11:39:01;101413.19;;;6.06;100.00
8101;BME280;4093;53.470;9.832;2022-12-19T11:41:33;101426.38;;;6.38;100.00
8101;BME280;4093;53.470;9.832;2022-12-19T11:44:08;101435.91;;;6.48;100.00
8101;BME280;4093;53.470;9.832;2022-12-19T11:46:42;101417.97;;;6.55;100.00
8101;BME280;4093;53.470;9.832;2022-12-19T11:49:21;101413.47;;;6.31;100.00
8101;BME280;4093;53.470;9.832;2022-12-19T11:51:55;101409.03;;;6.16;100.00
8101;BME280;4093;53.470;9.832;2022-12-19T11:54:29;101416.41;;;6.64;100.00
8101;BME280;4093;53.470;9.832;2022-12-19T11:56:59;101405.16;;;6.56;100.00
8101;BME280;4093;53.470;9.832;2022-12-19T11:59:30;101404.16;;;6.42;100.00
8101;BME280;4093;53.470;9.832;2022-12-19T12:02:14;101401.50;;;6.33;100.00
8101;BME280;4093;53.470;9.832;2022-12-19T12:04:55;101402.06;;;6.91;100.00
8101;BME280;4093;53.470;9.832;2022-12-19T12:07:34;101401.25;;;6.98;100.00
8101;BME280;4093;53.470;9.832;2022-12-19T12:10:22;101402.25;;;7.17;100.00
8101;BME280;4093;53.470;9.832;2022-12-19T12:13:17;101386.66;;;6.94;100.00
8101;BME280;4093;53.470;9.832;2022-12-19T12:16:11;101368.41;;;6.62;100.00
8101;BME280;4093;53.470;9.832;2022-12-19T12:19:06;101380.44;;;6.64;100.00
8101;BME280;4093;53.470;9.832;2022-12-19T12:22:08;101378.47;;;6.42;100.00
8101;BME280;4093;53.470;9.832;2022-12-19T12:25:09;101372.78;;;6.77;100.00
8101;BME280;4093;53.470;9.832;2022-12-19T12:28:15;101377.38;;;7.13;100.00
8101;BME280;4093;53.470;9.832;2022-12-19T12:31:19;101367.69;;;6.83;100.00
8101;BME280;4093;53.470;9.832;2022-12-19T12:34:31;101299.41;;;6.10;100.00
8101;BME280;4093;53.470;9.832;2022-12-19T12:37:33;101372.97;;;6.97;100.00
8101;BME280;4093;53.470;9.832;2022-12-19T12:40:49;101367.78;;;6.92;100.00
8101;BME280;4093;53.470;9.832;2022-12-19T12:43:34;101354.16;;;7.02;100.00
8101;BME280;4093;53.470;9.832;2022-12-19T12:46:13;101355.09;;;7.13;100.00
8101;BME280;4093;53.470;9.832;2022-12-19T12:48:45;101359.38;;;7.17;100.00
8101;BME280;4093;53.470;9.832;2022-12-19T12:51:14;101345.56;;;7.00;100.00
8101;BME280;4093;53.470;9.832;2022-12-19T12:53:45;101356.06;;;7.34;100.00
8101;BME280;4093;53.470;9.832;2022-12-19T12:56:17;101349.09;;;7.11;100.00
8101;BME280;4093;53.470;9.832;2022-12-19T12:59:24;101320.78;;;7.08;100.00
8101;BME280;4093;53.470;9.832;2022-12-19T13:01:53;101338.81;;;7.17;100.00
8101;BME280;4093;53.470;9.832;2022-12-19T13:04:28;101328.50;;;7.10;100.00
8101;BME280;4093;53.470;9.832;2022-12-19T13:07:09;101343.28;;;7.51;100.00
8101;BME280;4093;53.470;9.832;2022-12-19T13:09:38;101335.53;;;7.41;100.00
8101;BME280;4093;53.470;9.832;2022-12-19T13:12:18;101338.16;;;7.49;100.00
8101;BME280;4093;53.470;9.832;2022-12-19T13:15:32;101329.56;;;7.49;100.00
8101;BME280;4093;53.470;9.832;2022-12-19T13:21:03;101340.88;;;7.84;100.00
8101;BME280;4093;53.470;9.832;2022-12-19T13:23:43;101333.13;;;7.78;100.00
8101;BME280;4093;53.470;9.832;2022-12-19T13:29:32;101327.91;;;7.55;100.00
8101;BME280;4093;53.470;9.832;2022-12-19T13:32:12;101330.47;;;7.55;100.00
8101;BME280;4093;53.470;9.832;2022-12-19T13:34:50;101333.13;;;7.78;100.00
8101;BME280;4093;53.470;9.832;2022-12-19T13:37:40;101301.19;;;7.32;100.00
8101;BME280;4093;53.470;9.832;2022-12-19T13:40:30;101320.22;;;7.77;100.00
8101;BME280;4093;53.470;9.832;2022-12-19T13:43:11;101332.22;;;7.67;100.00
8101;BME280;4093;53.470;9.832;2022-12-19T13:46:02;101290.97;;;7.47;100.00
8101;BME280;4093;53.470;9.832;2022-12-19T13:48:33;101330.31;;;7.25;100.00
8101;BME280;4093;53.470;9.832;2022-12-19T13:51:03;101326.88;;;7.24;100.00
8101;BME280;4093;53.470;9.832;2022-12-19T13:53:32;101329.56;;;7.50;100.00
8101;BME280;4093;53.470;9.832;2022-12-19T13:56:02;101315.09;;;7.77;100.00
8101;BME280;4093;53.470;9.832;2022-12-19T13:58:32;101328.88;;;7.91;100.00
8101;BME280;4093;53.470;9.832;2022-12-19T14:01:08;101327.13;;;7.81;100.00